sensor_id;sensor_type;location;lat;lon;timestamp;pressure;altitude;pressure_sealevel;temperature;humidity
56876;BME280;42622;49.972;8.452;2022-10-16T00:00:45;100359.53;;;14.22;100.00
56876;BME280;42622;49.972;8.452;2022-10-16T00:03:11;100354.94;;;14.24;100.00
56876;BME280;42622;49.972;8.452;2022-10-16T00:05:43;100357.59;;;14.24;100.00
56876;BME280;42622;49.972;8.452;2022-10-16T00:08:12;100350.56;;;14.23;100.00
56876;BME280;42622;49.972;8.452;2022-10-16T00:10:39;100353.97;;;14.25;100.00
56876;BME280;42622;49.972;8.452;2022-10-16T00:13:06;100352.88;;;14.28;100.00
56876;BME280;42622;49.972;8.452;2022-10-16T00:15:36;100357.31;;;14.27;100.00
56876;BME280;42622;49.972;8.452;2022-10-16T00:18:04;100362.38;;;14.30;100.00
56876;BME280;42622;49.972;8.452;2022-10-16T00:20:30;100363.09;;;14.32;100.00
56876;BME280;42622;49.972;8.452;2022-10-16T00:22:58;100363.22;;;14.31;100.00
56876;BME280;42622;49.972;8.452;2022-10-16T00:25:24;100353.44;;;14.31;100.00
56876;BME280;42622;49.972;8.452;2022-10-16T00:27:50;100355.97;;;14.33;100.00
56876;BME280;42622;49.972;8.452;2022-10-16T00:30:15;100359.47;;;14.33;100.00
56876;BME280;42622;49.972;8.452;2022-10-16T00:32:41;100358.47;;;14.34;100.00
56876;BME280;42622;49.972;8.452;2022-10-16T00:35:06;100360.44;;;14.32;100.00
56876;BME280;42622;49.972;8.452;2022-10-16T00:37:32;100365.75;;;14.32;100.00
56876;BME280;42622;49.972;8.452;2022-10-16T00:39:58;100370.09;;;14.33;100.00
56876;BME280;42622;49.972;8.452;2022-10-16T00:42:24;100373.59;;;14.34;100.00
56876;BME280;42622;49.972;8.452;2022-10-16T00:44:52;100357.78;;;14.32;100.00
56876;BME280;42622;49.972;8.452;2022-10-16T00:47:30;100349.81;;;14.32;100.00
56876;BME280;42622;49.972;8.452;2022-10-16T00:50:16;100348.13;;;14.31;100.00
56876;BME280;42622;49.972;8.452;2022-10-16T00:52:48;100347.16;;;14.32;100.00
56876;BME280;42622;49.972;8.452;2022-10-16T00:55:16;100342.53;;;14.34;100.00
56876;BME280;42622;49.972;8.452;2022-10-16T00:57:43;100355.72;;;14.36;100.00
56876;BME280;42622;49.972;8.452;2022-10-16T01:00:14;100361.88;;;14.37;100.00
56876;BME280;42622;49.972;8.452;2022-10-16T01:02:41;100372.50;;;14.37;100.00
56876;BME280;42622;49.972;8.452;2022-10-16T01:05:08;100376.72;;;14.39;100.00
56876;BME280;42622;49.972;8.452;2022-10-16T01:08:18;100391.84;;;14.39;100.00
56876;BME280;42622;49.972;8.452;2022-10-16T01:11:22;100396.91;;;14.42;100.00
56876;BME280;42622;49.972;8.452;2022-10-16T01:13:57;100387.94;;;14.43;100.00
56876;BME280;42622;49.972;8.452;2022-10-16T01:16:45;100392.19;;;14.45;100.00
56876;BME280;42622;49.972;8.452;2022-10-16T01:22:14;100383.91;;;14.48;100.00
56876;BME280;42622;49.972;8.452;2022-10-16T01:24:46;100380.19;;;14.51;100.00
56876;BME280;42622;49.972;8.452;2022-10-16T01:27:27;100381.16;;;14.50;100.00
56876;BME280;42622;49.972;8.452;2022-10-16T01:30:23;100369.78;;;14.48;100.00
56876;BME280;42622;49.972;8.452;2022-10-16T01:33:00;100384.06;;;14.47;100.00
56876;BME280;42622;49.972;8.452;2022-10-16T01:35:38;100383.31;;;14.45;100.00
56876;BME280;42622;49.972;8.452;2022-10-16T01:38:15;100374.50;;;14.44;100.00
56876;BME280;42622;49.972;8.452;2022-10-16T01:40:51;100382.63;;;14.43;100.00
56876;BME280;42622;49.972;8.452;2022-10-16T01:43:53;100380.09;;;14.41;100.00
56876;BME280;42622;49.972;8.452;2022-10-16T01:46:20;100383.88;;;14.39;100.00
56876;BME280;42622;49.972;8.452;2022-10-16T01:48:48;100393.53;;;14.40;100.00
56876;BME280;42622;49.972;8.452;2022-10-16T01:51:19;100386.38;;;14.40;100.00
56876;BME280;42622;49.972;8.452;2022-10-16T01:53:53;100390.03;;;14.39;100.00
56876;BME280;42622;49.972;8.452;2022-10-16T01:56:22;100392.69;;;14.39;100.00
56876;BME280;42622;49.972;8.452;2022-10-16T01:58:55;100399.81;;;14.39;100.00
56876;BME280;42622;49.972;8.452;2022-10-16T02:01:29;100397.16;;;14.39;100.00
56876;BME280;42622;49.972;8.452;2022-10-16T02:04:04;100407.91;;;14.37;100.00
56876;BME280;42622;49.972;8.452;2022-10-16T02:06:33;100415.88;;;14.37;100.00
56876;BME280;42622;49.972;8.452;2022-10-16T02:08:59;100404.41;;;14.37;100.00
56876;BME280;42622;49.972;8.452;2022-10-16T02:11:25;100399.09;;;14.37;100.00
56876;BME280;42622;49.972;8.452;2022-10-16T02:14:01;100395.72;;;14.34;100.00
56876;BME280;42622;49.972;8.452;2022-10-16T02:16:44;100388.72;;;14.33;100.00
56876;BME280;42622;49.972;8.452;2022-10-16T02:19:13;100393.34;;;14.31;100.00
56876;BME280;42622;49.972;8.452;2022-10-16T02:21:50;100398.66;;;14.31;100.00
56876;BME280;42622;49.972;8.452;2022-10-16T02:24:43;100400.44;;;14.31;100.00
56876;BME280;42622;49.972;8.452;2022-10-16T02:27:34;100412.78;;;14.32;100.00
56876;BME280;42622;49.972;8.452;2022-10-16T02:30:43;100410.38;;;14.29;100.00
56876;BME280;42622;49.972;8.452;2022-10-16T02:33:14;100411.38;;;14.28;100.00
56876;BME280;42622;49.972;8.452;2022-10-16T02:35:44;100406.03;;;14.28;100.00
56876;BME280;42622;49.972;8.452;2022-10-16T02:38:12;100402.66;;;14.26;100.00
56876;BME280;42622;49.972;8.452;2022-10-16T02:40:39;100416.09;;;14.24;100.00
56876;BME280;42622;49.972;8.452;2022-10-16T02:43:05;100404.72;;;14.22;100.00
56876;BME280;42622;49.972;8.452;2022-10-16T02:45:32;100410.78;;;14.24;100.00
56876;BME280;42622;49.972;8.452;2022-10-16T02:47:58;100412.69;;;14.22;100.00
56876;BME280;42622;49.972;8.452;2022-10-16T02:50:24;100425.00;;;14.23;100.00
56876;BME280;42622;49.972;8.452;2022-10-16T02:52:50;100430.22;;;14.25;100.00
56876;BME280;42622;49.972;8.452;2022-10-16T02:55:16;100427.69;;;14.23;100.00
56876;BME280;42622;49.972;8.452;2022-10-16T02:57:42;100430.34;;;14.23;100.00
56876;BME280;42622;49.972;8.452;2022-10-16T03:00:13;100431.19;;;14.24;100.00
56876;BME280;42622;49.972;8.452;2022-10-16T03:02:39;100425.00;;;14.23;100.00
56876;BME280;42622;49.972;8.452;2022-10-16T03:05:05;100425.16;;;14.22;100.00
56876;BME280;42622;49.972;8.452;2022-10-16T03:07:31;100423.34;;;14.22;100.00
56876;BME280;42622;49.972;8.452;2022-10-16T03:09:56;100424.44;;;14.20;100.00
56876;BME280;42622;49.972;8.452;2022-10-16T03:12:22;100426.25;;;14.19;100.00
56876;BME280;42622;49.972;8.452;2022-10-16T03:14:48;100434.22;;;14.19;100.00
56876;BME280;42622;49.972;8.452;2022-10-16T03:17:14;100433.38;;;14.19;100.00
56876;BME280;42622;49.972;8.452;2022-10-16T03:19:42;100434.22;;;14.19;100.00
56876;BME280;42622;49.972;8.452;2022-10-16T03:22:07;100417.44;;;14.19;100.00
56876;BME280;42622;49.972;8.452;2022-10-16T03:24:33;100427.22;;;14.18;100.00
56876;BME280;42622;49.972;8.452;2022-10-16T03:26:59;100432.53;;;14.18;100.00
56876;BME280;42622;49.972;8.452;2022-10-16T03:29:25;100445.84;;;14.18;100.00
56876;BME280;42622;49.972;8.452;2022-10-16T03:31:51;100445.09;;;14.16;100.00
56876;BME280;42622;49.972;8.452;2022-10-16T03:34:17;100449.59;;;14.16;100.00
56876;BME280;42622;49.972;8.452;2022-10-16T03:36:43;100438.94;;;14.16;100.00
56876;BME280;42622;49.972;8.452;2022-10-16T03:39:08;100438.13;;;14.15;100.00
56876;BME280;42622;49.972;8.452;2022-10-16T03:41:34;100439.94;;;14.15;100.00
56876;BME280;42622;49.972;8.452;2022-10-16T03:43:59;100438.84;;;14.17;100.00
56876;BME280;42622;49.972;8.452;2022-10-16T03:46:25;100450.31;;;14.18;100.00
56876;BME280;42622;49.972;8.452;2022-10-16T03:48:51;100452.00;;;14.19;100.00
56876;BME280;42622;49.972;8.452;2022-10-16T03:51:16;100441.22;;;14.20;100.00
56876;BME280;42622;49.972;8.452;2022-10-16T03:53:42;100438.69;;;14.19;100.00
56876;BME280;42622;49.972;8.452;2022-10-16T03:56:07;100436.88;;;14.19;100.00
56876;BME280;42622;49.972;8.452;2022-10-16T03:58:33;100446.81;;;14.17;100.00
56876;BME280;42622;49.972;8.452;2022-10-16T04:00:58;100439.69;;;14.18;100.00
56876;BME280;42622;49.972;8.452;2022-10-16T04:03:24;100424.69;;;14.17;100.00
56876;BME280;42622;49.972;8.452;2022-10-16T04:05:50;100439.78;;;14.16;100.00
56876;BME280;42622;49.972;8.452;2022-10-16T04:08:16;100435.44;;;14.15;100.00
56876;BME280;42622;49.972;8.452;2022-10-16T04:10:45;100441.50;;;14.17;100.00
56876;BME280;42622;49.972;8.452;2022-10-16T04:13:12;100459.84;;;14.20;100.00
56876;BME280;42622;49.972;8.452;2022-10-16T04:15:38;100462.50;;;14.20;100.00
56876;BME280;42622;49.972;8.452;2022-10-16T04:18:05;100450.19;;;14.19;100.00
56876;BME280;42622;49.972;8.452;2022-10-16T04:20:31;100458.03;;;14.21;100.00
56876;BME280;42622;49.972;8.452;2022-10-16T04:22:57;100452.59;;;14.22;100.00
56876;BME280;42622;49.972;8.452;2022-10-16T04:25:23;100452.44;;;14.24;100.00
56876;BME280;42622;49.972;8.452;2022-10-16T04:27:48;100447.13;;;14.24;100.00
56876;BME280;42622;49.972;8.452;2022-10-16T04:30:14;100448.69;;;14.26;100.00
56876;BME280;42622;49.972;8.452;2022-10-16T04:32:40;100454.84;;;14.27;100.00
56876;BME280;42622;49.972;8.452;2022-10-16T04:35:07;100433.72;;;14.25;100.00
56876;BME280;42622;49.972;8.452;2022-10-16T04:37:33;100455.09;;;14.24;100.00
56876;BME280;42622;49.972;8.452;2022-10-16T04:39:58;100467.69;;;14.22;100.00
56876;BME280;42622;49.972;8.452;2022-10-16T04:42:24;100466.13;;;14.19;100.00
56876;BME280;42622;49.972;8.452;2022-10-16T04:44:49;100458.28;;;14.18;100.00
56876;BME280;42622;49.972;8.452;2022-10-16T04:47:15;100459.00;;;14.20;100.00
56876;BME280;42622;49.972;8.452;2022-10-16T04:49:41;100459.00;;;14.20;100.00
56876;BME280;42622;49.972;8.452;2022-10-16T04:52:07;100463.47;;;14.19;100.00
56876;BME280;42622;49.972;8.452;2022-10-16T04:54:34;100468.78;;;14.19;100.00
56876;BME280;42622;49.972;8.452;2022-10-16T04:57:00;100470.59;;;14.19;100.00
56876;BME280;42622;49.972;8.452;2022-10-16T04:59:26;100478.44;;;14.20;100.00
56876;BME280;42622;49.972;8.452;2022-10-16T05:01:52;100471.44;;;14.19;100.00
56876;BME280;42622;49.972;8.452;2022-10-16T05:04:17;100479.56;;;14.18;100.00
56876;BME280;42622;49.972;8.452;2022-10-16T05:06:43;100478.72;;;14.17;100.00
56876;BME280;42622;49.972;8.452;2022-10-16T05:09:09;100473.50;;;14.16;100.00
56876;BME280;42622;49.972;8.452;2022-10-16T05:11:35;100480.66;;;14.15;100.00
56876;BME280;42622;49.972;8.452;2022-10-16T05:14:02;100479.81;;;14.15;100.00
56876;BME280;42622;49.972;8.452;2022-10-16T05:16:29;100477.16;;;14.15;100.00
56876;BME280;42622;49.972;8.452;2022-10-16T05:18:56;100461.31;;;14.13;100.00
56876;BME280;42622;49.972;8.452;2022-10-16T05:21:22;100467.59;;;14.12;100.00
56876;BME280;42622;49.972;8.452;2022-10-16T05:23:48;100474.16;;;14.08;100.00
56876;BME280;42622;49.972;8.452;2022-10-16T05:26:14;100474.41;;;14.05;100.00
56876;BME280;42622;49.972;8.452;2022-10-16T05:28:39;100469.56;;;13.99;100.00
56876;BME280;42622;49.972;8.452;2022-10-16T05:31:09;100462.13;;;13.93;100.00
56876;BME280;42622;49.972;8.452;2022-10-16T05:33:35;100456.22;;;13.89;100.00
56876;BME280;42622;49.972;8.452;2022-10-16T05:36:04;100462.72;;;13.85;100.00
56876;BME280;42622;49.972;8.452;2022-10-16T05:38:30;100467.72;;;13.78;100.00
56876;BME280;42622;49.972;8.452;2022-10-16T05:40:56;100468.06;;;13.74;100.00
56876;BME280;42622;49.972;8.452;2022-10-16T05:43:22;100464.94;;;13.69;100.00
56876;BME280;42622;49.972;8.452;2022-10-16T05:46:02;100479.31;;;13.66;100.00
56876;BME280;42622;49.972;8.452;2022-10-16T05:48:28;100483.91;;;13.64;100.00
56876;BME280;42622;49.972;8.452;2022-10-16T05:51:01;100498.13;;;13.63;100.00
56876;BME280;42622;49.972;8.452;2022-10-16T05:53:28;100501.63;;;13.63;100.00
56876;BME280;42622;49.972;8.452;2022-10-16T05:55:55;100509.50;;;13.65;100.00
56876;BME280;42622;49.972;8.452;2022-10-16T05:58:22;100514.56;;;13.68;100.00
56876;BME280;42622;49.972;8.452;2022-10-16T06:01:01;100509.03;;;13.71;100.00
56876;BME280;42622;49.972;8.452;2022-10-16T06:03:27;100515.78;;;13.75;100.00
56876;BME280;42622;49.972;8.452;2022-10-16T06:05:53;100524.34;;;13.79;100.00
56876;BME280;42622;49.972;8.452;2022-10-16T06:08:22;100521.44;;;13.82;100.00
56876;BME280;42622;49.972;8.452;2022-10-16T06:10:49;100532.78;;;13.84;100.00
56876;BME280;42622;49.972;8.452;2022-10-16T06:13:25;100522.88;;;13.86;100.00
56876;BME280;42622;49.972;8.452;2022-10-16T06:15:50;100533.28;;;13.89;100.00
56876;BME280;42622;49.972;8.452;2022-10-16T06:18:16;100529.75;;;13.88;100.00
56876;BME280;42622;49.972;8.452;2022-10-16T06:20:42;100528.81;;;13.90;100.00
56876;BME280;42622;49.972;8.452;2022-10-16T06:23:07;100533.28;;;13.89;100.00
56876;BME280;42622;49.972;8.452;2022-10-16T06:25:33;100533.88;;;13.93;100.00
56876;BME280;42622;49.972;8.452;2022-10-16T06:27:59;100528.56;;;13.93;100.00
56876;BME280;42622;49.972;8.452;2022-10-16T06:30:25;100521.28;;;13.95;100.00
56876;BME280;42622;49.972;8.452;2022-10-16T06:32:50;100524.69;;;13.97;100.00
56876;BME280;42622;49.972;8.452;2022-10-16T06:35:16;100526.38;;;13.98;100.00
56876;BME280;42622;49.972;8.452;2022-10-16T06:37:41;100527.34;;;13.97;100.00
56876;BME280;42622;49.972;8.452;2022-10-16T06:40:07;100525.38;;;13.99;100.00
56876;BME280;42622;49.972;8.452;2022-10-16T06:42:33;100527.19;;;13.98;100.00
56876;BME280;42622;49.972;8.452;2022-10-16T06:44:58;100535.06;;;14.00;100.00
56876;BME280;42622;49.972;8.452;2022-10-16T06:47:24;100531.44;;;14.01;100.00
56876;BME280;42622;49.972;8.452;2022-10-16T06:49:50;100527.78;;;14.02;100.00
56876;BME280;42622;49.972;8.452;2022-10-16T06:52:15;100542.66;;;14.04;100.00
56876;BME280;42622;49.972;8.452;2022-10-16T06:54:41;100547.84;;;14.06;100.00
56876;BME280;42622;49.972;8.452;2022-10-16T06:57:06;100557.53;;;14.07;100.00
56876;BME280;42622;49.972;8.452;2022-10-16T06:59:32;100548.56;;;14.08;100.00
56876;BME280;42622;49.972;8.452;2022-10-16T07:01:58;100560.78;;;14.10;100.00
56876;BME280;42622;49.972;8.452;2022-10-16T07:04:23;100567.66;;;14.13;100.00
56876;BME280;42622;49.972;8.452;2022-10-16T07:06:49;100568.38;;;14.15;100.00
56876;BME280;42622;49.972;8.452;2022-10-16T07:09:15;100561.84;;;14.19;100.00
56876;BME280;42622;49.972;8.452;2022-10-16T07:11:40;100566.66;;;14.25;100.00
56876;BME280;42622;49.972;8.452;2022-10-16T07:14:19;100575.94;;;14.31;100.00
56876;BME280;42622;49.972;8.452;2022-10-16T07:16:45;100585.50;;;14.33;100.00
56876;BME280;42622;49.972;8.452;2022-10-16T07:19:12;100587.19;;;14.34;100.00
56876;BME280;42622;49.972;8.452;2022-10-16T07:21:39;100594.22;;;14.35;100.00
56876;BME280;42622;49.972;8.452;2022-10-16T07:24:13;100595.06;;;14.36;100.00
56876;BME280;42622;49.972;8.452;2022-10-16T07:26:39;100592.25;;;14.38;100.00
56876;BME280;42622;49.972;8.452;2022-10-16T07:29:18;100595.91;;;14.37;100.00
56876;BME280;42622;49.972;8.452;2022-10-16T07:31:45;100600.22;;;14.38;100.00
56876;BME280;42622;49.972;8.452;2022-10-16T07:34:14;100586.09;;;14.37;100.00
56876;BME280;42622;49.972;8.452;2022-10-16T07:36:40;100600.22;;;14.38;100.00
56876;BME280;42622;49.972;8.452;2022-10-16T07:39:06;100600.97;;;14.40;100.00
56876;BME280;42622;49.972;8.452;2022-10-16T07:41:32;100602.53;;;14.42;100.00
56876;BME280;42622;49.972;8.452;2022-10-16T07:43:59;100610.88;;;14.49;100.00
56876;BME280;42622;49.972;8.452;2022-10-16T07:46:26;100613.44;;;14.50;100.00
56876;BME280;42622;49.972;8.452;2022-10-16T07:48:52;100615.00;;;14.53;100.00
56876;BME280;42622;49.972;8.452;2022-10-16T07:51:21;100616.69;;;14.54;100.00
56876;BME280;42622;49.972;8.452;2022-10-16T07:53:48;100628.06;;;14.56;100.00
56876;BME280;42622;49.972;8.452;2022-10-16T07:56:16;100626.84;;;14.60;100.00
56876;BME280;42622;49.972;8.452;2022-10-16T07:58:42;100642.56;;;14.63;100.00
56876;BME280;42622;49.972;8.452;2022-10-16T08:01:12;100636.13;;;14.66;100.00
56876;BME280;42622;49.972;8.452;2022-10-16T08:03:41;100631.53;;;14.68;100.00
56876;BME280;42622;49.972;8.452;2022-10-16T08:06:07;100648.09;;;14.71;100.00
56876;BME280;42622;49.972;8.452;2022-10-16T08:08:33;100647.00;;;14.74;100.00
56876;BME280;42622;49.972;8.452;2022-10-16T08:10:59;100652.91;;;14.77;100.00
56876;BME280;42622;49.972;8.452;2022-10-16T08:13:25;100656.28;;;14.79;100.00
56876;BME280;42622;49.972;8.452;2022-10-16T08:15:53;100661.34;;;14.82;100.00
56876;BME280;42622;49.972;8.452;2022-10-16T08:18:19;100653.25;;;14.84;100.00
56876;BME280;42622;49.972;8.452;2022-10-16T08:20:45;100668.13;;;14.87;100.00
56876;BME280;42622;49.972;8.452;2022-10-16T08:23:13;100669.81;;;14.88;100.00
56876;BME280;42622;49.972;8.452;2022-10-16T08:25:40;100675.00;;;14.89;100.00
56876;BME280;42622;49.972;8.452;2022-10-16T08:28:10;100683.13;;;14.88;100.00
56876;BME280;42622;49.972;8.452;2022-10-16T08:30:36;100683.97;;;14.88;100.00
56876;BME280;42622;49.972;8.452;2022-10-16T08:33:02;100685.78;;;14.88;100.00
56876;BME280;42622;49.972;8.452;2022-10-16T08:35:28;100688.56;;;14.86;100.00
56876;BME280;42622;49.972;8.452;2022-10-16T08:37:53;100701.78;;;14.88;100.00
56876;BME280;42622;49.972;8.452;2022-10-16T08:40:31;100701.78;;;14.88;100.00
56876;BME280;42622;49.972;8.452;2022-10-16T08:43:39;100699.56;;;14.93;100.00
56876;BME280;42622;49.972;8.452;2022-10-16T08:49:27;100708.16;;;14.96;100.00
56876;BME280;42622;49.972;8.452;2022-10-16T08:51:53;100715.28;;;14.96;100.00
56876;BME280;42622;49.972;8.452;2022-10-16T08:54:36;100718.66;;;14.98;100.00
56876;BME280;42622;49.972;8.452;2022-10-16T08:57:19;100718.53;;;14.99;100.00
56876;BME280;42622;49.972;8.452;2022-10-16T08:59:46;100722.78;;;15.02;100.00
56876;BME280;42622;49.972;8.452;2022-10-16T09:08:42;100729.16;;;15.11;100.00
56876;BME280;42622;49.972;8.452;2022-10-16T09:11:30;100743.31;;;15.11;100.00
56876;BME280;42622;49.972;8.452;2022-10-16T09:14:44;100743.31;;;15.11;100.00
56876;BME280;42622;49.972;8.452;2022-10-16T09:23:38;100756.59;;;15.22;100.00
56876;BME280;42622;49.972;8.452;2022-10-16T09:26:11;100769.56;;;15.27;100.00
56876;BME280;42622;49.972;8.452;2022-10-16T09:28:37;100769.56;;;15.27;100.00
56876;BME280;42622;49.972;8.452;2022-10-16T09:31:03;100760.19;;;15.33;100.00
56876;BME280;42622;49.972;8.452;2022-10-16T09:33:36;100768.03;;;15.45;100.00
56876;BME280;42622;49.972;8.452;2022-10-16T09:36:04;100781.69;;;15.52;100.00
56876;BME280;42622;49.972;8.452;2022-10-16T09:38:34;100779.97;;;15.51;100.00
56876;BME280;42622;49.972;8.452;2022-10-16T09:41:21;100772.13;;;15.49;100.00
56876;BME280;42622;49.972;8.452;2022-10-16T09:43:57;100771.72;;;15.54;100.00
56876;BME280;42622;49.972;8.452;2022-10-16T09:46:32;100777.91;;;15.54;100.00
56876;BME280;42622;49.972;8.452;2022-10-16T09:49:02;100792.41;;;15.62;100.00
56876;BME280;42622;49.972;8.452;2022-10-16T09:51:35;100796.44;;;15.67;100.00
56876;BME280;42622;49.972;8.452;2022-10-16T09:54:17;100789.63;;;15.63;100.00
56876;BME280;42622;49.972;8.452;2022-10-16T09:56:43;100784.69;;;15.59;100.00
56876;BME280;42622;49.972;8.452;2022-10-16T09:59:13;100795.47;;;15.57;100.00
56876;BME280;42622;49.972;8.452;2022-10-16T10:01:44;100794.63;;;15.57;100.00
56876;BME280;42622;49.972;8.452;2022-10-16T10:04:12;100791.81;;;15.58;100.00
56876;BME280;42622;49.972;8.452;2022-10-16T10:06:49;100798.97;;;15.58;100.00
56876;BME280;42622;49.972;8.452;2022-10-16T10:09:22;100801.63;;;15.58;100.00
56876;BME280;42622;49.972;8.452;2022-10-16T10:11:56;100797.75;;;15.62;100.00
56876;BME280;42622;49.972;8.452;2022-10-16T10:17:15;100796.59;;;15.87;100.00
56876;BME280;42622;49.972;8.452;2022-10-16T10:19:55;100783.53;;;16.05;100.00
56876;BME280;42622;49.972;8.452;2022-10-16T10:22:43;100796.56;;;16.29;100.00
56876;BME280;42622;49.972;8.452;2022-10-16T10:28:15;100796.50;;;17.01;100.00
56876;BME280;42622;49.972;8.452;2022-10-16T10:34:50;100794.97;;;17.28;100.00
56876;BME280;42622;49.972;8.452;2022-10-16T10:37:56;100804.66;;;17.09;100.00
56876;BME280;42622;49.972;8.452;2022-10-16T10:43:17;100777.44;;;18.03;100.00
56876;BME280;42622;49.972;8.452;2022-10-16T10:45:52;100778.75;;;18.36;100.00
56876;BME280;42622;49.972;8.452;2022-10-16T10:49:03;100783.81;;;18.39;100.00
56876;BME280;42622;49.972;8.452;2022-10-16T10:51:55;100776.50;;;18.69;100.00
56876;BME280;42622;49.972;8.452;2022-10-16T10:57:43;100783.78;;;18.86;100.00
56876;BME280;42622;49.972;8.452;2022-10-16T11:08:39;100771.44;;;18.66;100.00
56876;BME280;42622;49.972;8.452;2022-10-16T11:14:15;100784.75;;;18.48;100.00
56876;BME280;42622;49.972;8.452;2022-10-16T11:19:25;100782.50;;;18.53;100.00
56876;BME280;42622;49.972;8.452;2022-10-16T11:22:26;100791.66;;;18.50;100.00
56876;BME280;42622;49.972;8.452;2022-10-16T11:25:13;100787.31;;;18.49;100.00
56876;BME280;42622;49.972;8.452;2022-10-16T11:28:11;100794.97;;;18.34;100.00
56876;BME280;42622;49.972;8.452;2022-10-16T11:30:50;100794.53;;;18.29;100.00
56876;BME280;42622;49.972;8.452;2022-10-16T11:36:16;100786.50;;;18.29;100.00
56876;BME280;42622;49.972;8.452;2022-10-16T11:39:05;100788.47;;;18.37;100.00
56876;BME280;42622;49.972;8.452;2022-10-16T11:41:53;100778.84;;;18.44;100.00
56876;BME280;42622;49.972;8.452;2022-10-16T11:47:56;100761.88;;;18.63;100.00
56876;BME280;42622;49.972;8.452;2022-10-16T11:50:41;100763.69;;;19.00;100.00
56876;BME280;42622;49.972;8.452;2022-10-16T11:56:17;100747.97;;;20.20;100.00
56876;BME280;42622;49.972;8.452;2022-10-16T11:59:00;100756.44;;;20.60;100.00
56876;BME280;42622;49.972;8.452;2022-10-16T12:04:49;100749.50;;;21.42;100.00
56876;BME280;42622;49.972;8.452;2022-10-16T12:07:28;100762.25;;;21.72;100.00
56876;BME280;42622;49.972;8.452;2022-10-16T12:09:57;100752.69;;;21.94;100.00
56876;BME280;42622;49.972;8.452;2022-10-16T12:12:38;100761.41;;;22.05;100.00
56876;BME280;42622;49.972;8.452;2022-10-16T12:15:28;100746.78;;;21.99;100.00
56876;BME280;42622;49.972;8.452;2022-10-16T12:17:55;100758.38;;;22.08;100.00
56876;BME280;42622;49.972;8.452;2022-10-16T12:20:32;100763.41;;;22.35;100.00
56876;BME280;42622;49.972;8.452;2022-10-16T12:23:01;100763.41;;;22.75;100.00
56876;BME280;42622;49.972;8.452;2022-10-16T12:25:37;100758.69;;;23.16;100.00
56876;BME280;42622;49.972;8.452;2022-10-16T12:30:42;100770.41;;;23.77;96.05
56876;BME280;42622;49.972;8.452;2022-10-16T12:33:34;100773.63;;;23.96;93.37
56876;BME280;42622;49.972;8.452;2022-10-16T12:36:09;100765.97;;;23.61;94.89
56876;BME280;42622;49.972;8.452;2022-10-16T12:38:50;100764.41;;;23.67;92.98
56876;BME280;42622;49.972;8.452;2022-10-16T12:41:35;100774.06;;;23.84;89.46
56876;BME280;42622;49.972;8.452;2022-10-16T12:44:03;100767.72;;;23.77;88.31
56876;BME280;42622;49.972;8.452;2022-10-16T12:51:35;100787.97;;;22.40;87.75
56876;BME280;42622;49.972;8.452;2022-10-16T13:00:02;100774.50;;;20.75;90.37
56876;BME280;42622;49.972;8.452;2022-10-16T13:08:28;100772.19;;;20.02;93.60
56876;BME280;42622;49.972;8.452;2022-10-16T13:11:22;100778.59;;;19.84;94.06
56876;BME280;42622;49.972;8.452;2022-10-16T13:23:13;100790.94;;;19.58;95.13
56876;BME280;42622;49.972;8.452;2022-10-16T13:28:22;100776.59;;;19.68;95.38
56876;BME280;42622;49.972;8.452;2022-10-16T13:30:58;100789.72;;;19.71;95.14
56876;BME280;42622;49.972;8.452;2022-10-16T13:33:36;100784.34;;;19.71;95.37
56876;BME280;42622;49.972;8.452;2022-10-16T13:36:05;100773.94;;;19.68;95.18
56876;BME280;42622;49.972;8.452;2022-10-16T13:38:35;100773.84;;;19.59;95.42
56876;BME280;42622;49.972;8.452;2022-10-16T13:41:14;100777.97;;;19.54;94.79
56876;BME280;42622;49.972;8.452;2022-10-16T13:43:47;100784.50;;;19.51;95.47
56876;BME280;42622;49.972;8.452;2022-10-16T13:46:21;100774.38;;;19.45;95.57
56876;BME280;42622;49.972;8.452;2022-10-16T13:49:04;100774.97;;;19.39;95.36
56876;BME280;42622;49.972;8.452;2022-10-16T13:51:32;100778.13;;;19.34;95.22
56876;BME280;42622;49.972;8.452;2022-10-16T13:53:59;100773.06;;;19.31;95.71
56876;BME280;42622;49.972;8.452;2022-10-16T13:56:29;100770.31;;;19.23;95.17
56876;BME280;42622;49.972;8.452;2022-10-16T13:59:00;100763.03;;;19.16;95.95
56876;BME280;42622;49.972;8.452;2022-10-16T14:01:41;100755.19;;;19.04;96.21
56876;BME280;42622;49.972;8.452;2022-10-16T14:04:12;100757.47;;;18.99;96.67
56876;BME280;42622;49.972;8.452;2022-10-16T14:06:45;100753.00;;;18.90;97.14
56876;BME280;42622;49.972;8.452;2022-10-16T14:09:31;100746.56;;;18.83;97.88
56876;BME280;42622;49.972;8.452;2022-10-16T14:12:11;100772.13;;;18.77;98.28
56876;BME280;42622;49.972;8.452;2022-10-16T14:14:47;100774.53;;;18.71;98.66
56876;BME280;42622;49.972;8.452;2022-10-16T14:17:31;100770.88;;;18.72;99.34
56876;BME280;42622;49.972;8.452;2022-10-16T14:20:04;100769.88;;;18.73;100.00
56876;BME280;42622;49.972;8.452;2022-10-16T14:22:34;100766.63;;;18.79;99.71
56876;BME280;42622;49.972;8.452;2022-10-16T14:25:15;100769.84;;;18.82;100.00
56876;BME280;42622;49.972;8.452;2022-10-16T14:27:57;100782.34;;;18.92;100.00
56876;BME280;42622;49.972;8.452;2022-10-16T14:30:24;100781.75;;;18.98;100.00
56876;BME280;42622;49.972;8.452;2022-10-16T14:33:00;100774.09;;;19.03;100.00
56876;BME280;42622;49.972;8.452;2022-10-16T14:35:33;100784.22;;;19.09;100.00